Stanley, Falkland Islands

3:02 PM FKST on January 28, 2015 (GMT -0300)
McKay Close | Change Station
CLOSE
Current Station
Personal Weather Station
Location: Stanley, EAST FALKLAND
Elevation: 121 ft
Nearby Weather Stations

Elev 121 ft 51.70 °S, 57.84 °W | Updated 2 minutes ago

Partly Cloudy
Partly Cloudy
48.6 °F
Feels Like 39 °F
N
38.0
Wind Variable Wind from SSW
Gusts 38.0 mph

Today
High -- | Low -- °F
--% Chance of Precip.
Yesterday
High -- | Low -- °F
Precip. -- in
5:19 AM 8:47 PM
Waxing Gibbous, 66% visible
Pressure 29.68 in
Visibility 6.2 miles
Clouds Few 2300 ft
Windchill 39 °F
Dew Point 40 °F
Humidity 73%
Rainfall 0.09 in
Snow Depth Not available.
UV 3.3 out of 12
Pollen Not available.
Air Quality Not available.
Flu Activity Not available.
METAR EGYP 281750Z 20030KT 9999 FEW023 09/03 Q1005 BLU NOSIG

More Conditions Fewer Conditions

Pressure 29.68 in
Visibility 6.2 miles
Clouds Few 2300 ft
Windchill 39 °F
Dew Point 40 °F
Humidity 73%
Rainfall 0.09 in
Snow Depth Not available.
UV 3.3 out of 12
Pollen Not available.
Air Quality Not available.
Flu Activity Not available.
METAR EGYP 281750Z 20030KT 9999 FEW023 09/03 Q1005 BLU NOSIG

More Conditions Fewer Conditions

10-Day Weather Forecast

Almanac

Astronomy

Jan. 28, 2015 Rise Set
Actual Time
Civil Twilight
Nautical Twilight
Astronomical Twilight
Moon
Length of Visible Light
Length of Day
Tomorrow will be .
, % of the Moon is Illuminated

Today's Extremes

Country Highs Country Lows

Community

WunderPhotos

Upload Photos

1,791,236 photos uploaded!

WunderBlogs® & News

Nearby

Air Quality

  Air Quality AQ Index Pollutant
Not available.

Snow Depth

Station Depth Elevation

Earthquake Activity

City Distance Mag. Time & Date
Minimum magnitude displayed is 2.5.

Coastal Water Temperatures

Place Temperature

Nearby Weather Stations